sensor_id;sensor_type;location;lat;lon;timestamp;temperature;humidity
77839;SHT31;67034;43.226;27.932;2023-03-14T00:02:17;1.27;82.16
77839;SHT31;67034;43.226;27.932;2023-03-14T00:04:43;1.22;82.52
77839;SHT31;67034;43.226;27.932;2023-03-14T00:07:10;1.24;82.39
77839;SHT31;67034;43.226;27.932;2023-03-14T00:09:35;1.22;82.47
77839;SHT31;67034;43.226;27.932;2023-03-14T00:12:01;1.19;82.71
77839;SHT31;67034;43.226;27.932;2023-03-14T00:14:28;1.16;82.82
77839;SHT31;67034;43.226;27.932;2023-03-14T00:16:54;1.15;82.91
77839;SHT31;67034;43.226;27.932;2023-03-14T00:19:21;1.15;82.72
77839;SHT31;67034;43.226;27.932;2023-03-14T00:21:47;1.26;82.38
77839;SHT31;67034;43.226;27.932;2023-03-14T00:24:12;1.24;82.34
77839;SHT31;67034;43.226;27.932;2023-03-14T00:26:38;1.20;82.59
77839;SHT31;67034;43.226;27.932;2023-03-14T00:29:04;1.22;82.48
77839;SHT31;67034;43.226;27.932;2023-03-14T00:31:30;1.15;82.75
77839;SHT31;67034;43.226;27.932;2023-03-14T00:33:56;1.15;83.13
77839;SHT31;67034;43.226;27.932;2023-03-14T00:36:23;1.12;82.94
77839;SHT31;67034;43.226;27.932;2023-03-14T00:38:50;1.01;83.07
77839;SHT31;67034;43.226;27.932;2023-03-14T00:41:19;1.07;83.03
77839;SHT31;67034;43.226;27.932;2023-03-14T00:43:45;1.03;83.36
77839;SHT31;67034;43.226;27.932;2023-03-14T00:46:11;1.03;83.26
77839;SHT31;67034;43.226;27.932;2023-03-14T00:48:37;1.01;83.35
77839;SHT31;67034;43.226;27.932;2023-03-14T00:51:04;0.96;83.39
77839;SHT31;67034;43.226;27.932;2023-03-14T00:53:35;0.97;83.24
77839;SHT31;67034;43.226;27.932;2023-03-14T00:56:03;1.01;83.25
77839;SHT31;67034;43.226;27.932;2023-03-14T00:58:28;0.95;83.60
77839;SHT31;67034;43.226;27.932;2023-03-14T01:00:54;0.96;83.35
77839;SHT31;67034;43.226;27.932;2023-03-14T01:03:20;1.00;83.18
77839;SHT31;67034;43.226;27.932;2023-03-14T01:05:46;1.04;83.05
77839;SHT31;67034;43.226;27.932;2023-03-14T01:08:11;1.00;83.08
77839;SHT31;67034;43.226;27.932;2023-03-14T01:10:40;0.97;83.11
77839;SHT31;67034;43.226;27.932;2023-03-14T01:13:06;1.03;83.13
77839;SHT31;67034;43.226;27.932;2023-03-14T01:15:32;1.01;83.35
77839;SHT31;67034;43.226;27.932;2023-03-14T01:17:57;1.08;83.47
77839;SHT31;67034;43.226;27.932;2023-03-14T01:20:23;1.08;83.29
77839;SHT31;67034;43.226;27.932;2023-03-14T01:22:49;1.01;83.39
77839;SHT31;67034;43.226;27.932;2023-03-14T01:25:16;0.99;83.39
77839;SHT31;67034;43.226;27.932;2023-03-14T01:27:43;0.97;83.23
77839;SHT31;67034;43.226;27.932;2023-03-14T01:30:11;0.95;83.55
77839;SHT31;67034;43.226;27.932;2023-03-14T01:32:37;0.97;83.64
77839;SHT31;67034;43.226;27.932;2023-03-14T01:35:03;0.92;83.46
77839;SHT31;67034;43.226;27.932;2023-03-14T01:37:29;0.89;83.77
77839;SHT31;67034;43.226;27.932;2023-03-14T01:39:55;0.86;83.77
77839;SHT31;67034;43.226;27.932;2023-03-14T01:42:21;0.85;84.02
77839;SHT31;67034;43.226;27.932;2023-03-14T01:44:53;0.85;83.83
77839;SHT31;67034;43.226;27.932;2023-03-14T01:47:19;0.82;83.81
77839;SHT31;67034;43.226;27.932;2023-03-14T01:49:47;0.79;84.07
77839;SHT31;67034;43.226;27.932;2023-03-14T01:52:16;0.68;84.17
77839;SHT31;67034;43.226;27.932;2023-03-14T01:54:46;0.64;84.42
77839;SHT31;67034;43.226;27.932;2023-03-14T01:57:16;0.73;84.53
77839;SHT31;67034;43.226;27.932;2023-03-14T01:59:45;0.89;84.50
77839;SHT31;67034;43.226;27.932;2023-03-14T02:02:13;0.62;85.94
77839;SHT31;67034;43.226;27.932;2023-03-14T02:04:41;0.38;85.62
77839;SHT31;67034;43.226;27.932;2023-03-14T02:07:11;0.01;86.04
77839;SHT31;67034;43.226;27.932;2023-03-14T02:09:38;-0.07;86.75
77839;SHT31;67034;43.226;27.932;2023-03-14T02:12:04;-0.13;86.90
77839;SHT31;67034;43.226;27.932;2023-03-14T02:14:32;-0.10;86.94
77839;SHT31;67034;43.226;27.932;2023-03-14T02:17:00;-0.20;87.29
77839;SHT31;67034;43.226;27.932;2023-03-14T02:19:35;-0.20;87.30
77839;SHT31;67034;43.226;27.932;2023-03-14T02:22:06;-0.09;87.44
77839;SHT31;67034;43.226;27.932;2023-03-14T02:24:38;0.01;87.26
77839;SHT31;67034;43.226;27.932;2023-03-14T02:27:08;-0.20;86.62
77839;SHT31;67034;43.226;27.932;2023-03-14T02:29:36;-0.37;86.96
77839;SHT31;67034;43.226;27.932;2023-03-14T02:32:03;-0.37;87.28
77839;SHT31;67034;43.226;27.932;2023-03-14T02:34:29;-0.28;87.58
77839;SHT31;67034;43.226;27.932;2023-03-14T02:36:57;-0.42;87.23
77839;SHT31;67034;43.226;27.932;2023-03-14T02:39:27;-0.47;87.67
77839;SHT31;67034;43.226;27.932;2023-03-14T02:41:54;-0.47;87.71
77839;SHT31;67034;43.226;27.932;2023-03-14T02:44:21;-0.51;87.51
77839;SHT31;67034;43.226;27.932;2023-03-14T02:46:47;-0.55;87.70
77839;SHT31;67034;43.226;27.932;2023-03-14T02:49:14;-0.45;87.90
77839;SHT31;67034;43.226;27.932;2023-03-14T02:51:41;-0.54;87.57
77839;SHT31;67034;43.226;27.932;2023-03-14T02:54:08;-0.55;87.77
77839;SHT31;67034;43.226;27.932;2023-03-14T02:56:34;-0.45;87.85
77839;SHT31;67034;43.226;27.932;2023-03-14T02:59:02;-0.45;87.50
77839;SHT31;67034;43.226;27.932;2023-03-14T03:01:29;-0.44;87.40
77839;SHT31;67034;43.226;27.932;2023-03-14T03:03:55;-0.45;87.38
77839;SHT31;67034;43.226;27.932;2023-03-14T03:06:21;-0.42;87.31
77839;SHT31;67034;43.226;27.932;2023-03-14T03:08:47;-0.41;87.42
77839;SHT31;67034;43.226;27.932;2023-03-14T03:11:12;-0.41;87.37
77839;SHT31;67034;43.226;27.932;2023-03-14T03:13:38;-0.34;87.46
77839;SHT31;67034;43.226;27.932;2023-03-14T03:16:04;-0.27;87.48
77839;SHT31;67034;43.226;27.932;2023-03-14T03:18:31;-0.34;87.03
77839;SHT31;67034;43.226;27.932;2023-03-14T03:21:00;0.07;88.58
77839;SHT31;67034;43.226;27.932;2023-03-14T03:23:25;0.66;90.79
77839;SHT31;67034;43.226;27.932;2023-03-14T03:25:51;0.21;88.12
77839;SHT31;67034;43.226;27.932;2023-03-14T03:28:17;-0.14;87.89
77839;SHT31;67034;43.226;27.932;2023-03-14T03:30:43;-0.15;88.14
77839;SHT31;67034;43.226;27.932;2023-03-14T03:33:10;-0.30;88.20
77839;SHT31;67034;43.226;27.932;2023-03-14T03:35:43;-0.37;88.24
77839;SHT31;67034;43.226;27.932;2023-03-14T03:38:10;-0.37;88.53
77839;SHT31;67034;43.226;27.932;2023-03-14T03:40:37;-0.30;88.62
77839;SHT31;67034;43.226;27.932;2023-03-14T03:43:02;-0.34;88.39
77839;SHT31;67034;43.226;27.932;2023-03-14T03:45:29;-0.34;88.73
77839;SHT31;67034;43.226;27.932;2023-03-14T03:47:54;-0.38;88.75
77839;SHT31;67034;43.226;27.932;2023-03-14T03:50:20;-0.41;88.79
77839;SHT31;67034;43.226;27.932;2023-03-14T03:52:47;-0.41;88.71
77839;SHT31;67034;43.226;27.932;2023-03-14T03:55:13;-0.44;88.89
77839;SHT31;67034;43.226;27.932;2023-03-14T03:57:38;-0.44;88.78
77839;SHT31;67034;43.226;27.932;2023-03-14T04:00:06;-0.32;89.42
77839;SHT31;67034;43.226;27.932;2023-03-14T04:02:32;0.04;90.01
77839;SHT31;67034;43.226;27.932;2023-03-14T04:04:58;0.21;88.90
77839;SHT31;67034;43.226;27.932;2023-03-14T04:07:24;0.32;88.42
77839;SHT31;67034;43.226;27.932;2023-03-14T04:09:51;0.25;89.24
77839;SHT31;67034;43.226;27.932;2023-03-14T04:12:16;0.14;89.12
77839;SHT31;67034;43.226;27.932;2023-03-14T04:14:42;0.13;89.34
77839;SHT31;67034;43.226;27.932;2023-03-14T04:17:08;0.13;89.28
77839;SHT31;67034;43.226;27.932;2023-03-14T04:19:34;0.13;89.33
77839;SHT31;67034;43.226;27.932;2023-03-14T04:21:59;0.01;89.25
77839;SHT31;67034;43.226;27.932;2023-03-14T04:24:25;0.09;89.54
77839;SHT31;67034;43.226;27.932;2023-03-14T04:26:52;0.09;89.48
77839;SHT31;67034;43.226;27.932;2023-03-14T04:29:18;0.06;89.39
77839;SHT31;67034;43.226;27.932;2023-03-14T04:31:44;0.06;89.45
77839;SHT31;67034;43.226;27.932;2023-03-14T04:34:09;0.01;89.52
77839;SHT31;67034;43.226;27.932;2023-03-14T04:36:35;0.06;89.69
77839;SHT31;67034;43.226;27.932;2023-03-14T04:39:01;0.09;89.68
77839;SHT31;67034;43.226;27.932;2023-03-14T04:41:26;0.09;89.55
77839;SHT31;67034;43.226;27.932;2023-03-14T04:43:53;0.14;89.60
77839;SHT31;67034;43.226;27.932;2023-03-14T04:46:19;0.21;89.85
77839;SHT31;67034;43.226;27.932;2023-03-14T04:48:45;0.28;89.71
77839;SHT31;67034;43.226;27.932;2023-03-14T04:51:10;0.31;89.65
77839;SHT31;67034;43.226;27.932;2023-03-14T04:53:36;0.41;89.77
77839;SHT31;67034;43.226;27.932;2023-03-14T04:56:02;0.40;89.40
77839;SHT31;67034;43.226;27.932;2023-03-14T04:58:28;0.42;89.55
77839;SHT31;67034;43.226;27.932;2023-03-14T05:00:55;0.45;89.61
77839;SHT31;67034;43.226;27.932;2023-03-14T05:03:21;0.64;89.79
77839;SHT31;67034;43.226;27.932;2023-03-14T05:05:47;0.61;89.25
77839;SHT31;67034;43.226;27.932;2023-03-14T05:08:13;0.64;89.30
77839;SHT31;67034;43.226;27.932;2023-03-14T05:10:38;0.62;89.03
77839;SHT31;67034;43.226;27.932;2023-03-14T05:13:04;0.70;89.14
77839;SHT31;67034;43.226;27.932;2023-03-14T05:15:30;0.90;89.18
77839;SHT31;67034;43.226;27.932;2023-03-14T05:17:57;1.08;88.69
77839;SHT31;67034;43.226;27.932;2023-03-14T05:20:23;1.19;88.47
77839;SHT31;67034;43.226;27.932;2023-03-14T05:22:48;1.26;88.17
77839;SHT31;67034;43.226;27.932;2023-03-14T05:25:14;1.33;87.90
77839;SHT31;67034;43.226;27.932;2023-03-14T05:27:40;1.47;87.57
77839;SHT31;67034;43.226;27.932;2023-03-14T05:30:07;1.64;87.28
77839;SHT31;67034;43.226;27.932;2023-03-14T05:32:33;1.85;87.11
77839;SHT31;67034;43.226;27.932;2023-03-14T05:35:00;2.07;86.48
77839;SHT31;67034;43.226;27.932;2023-03-14T05:37:26;2.20;86.04
77839;SHT31;67034;43.226;27.932;2023-03-14T05:39:52;2.34;85.63
77839;SHT31;67034;43.226;27.932;2023-03-14T05:42:17;2.48;85.38
77839;SHT31;67034;43.226;27.932;2023-03-14T05:44:43;2.58;84.79
77839;SHT31;67034;43.226;27.932;2023-03-14T05:47:09;2.91;84.50
77839;SHT31;67034;43.226;27.932;2023-03-14T05:49:35;3.09;83.17
77839;SHT31;67034;43.226;27.932;2023-03-14T05:52:02;3.49;82.10
77839;SHT31;67034;43.226;27.932;2023-03-14T05:54:27;3.80;80.79
77839;SHT31;67034;43.226;27.932;2023-03-14T05:56:53;4.11;78.79
77839;SHT31;67034;43.226;27.932;2023-03-14T05:59:19;4.32;77.36
77839;SHT31;67034;43.226;27.932;2023-03-14T06:01:45;4.52;76.89
77839;SHT31;67034;43.226;27.932;2023-03-14T06:04:10;4.70;76.12
77839;SHT31;67034;43.226;27.932;2023-03-14T06:06:36;4.83;75.98
77839;SHT31;67034;43.226;27.932;2023-03-14T06:09:03;5.08;74.22
77839;SHT31;67034;43.226;27.932;2023-03-14T06:11:29;5.27;73.82
77839;SHT31;67034;43.226;27.932;2023-03-14T06:14:07;5.49;72.84
77839;SHT31;67034;43.226;27.932;2023-03-14T06:16:33;5.63;72.37
77839;SHT31;67034;43.226;27.932;2023-03-14T06:18:58;5.58;72.29
77839;SHT31;67034;43.226;27.932;2023-03-14T06:21:24;5.67;72.14
77839;SHT31;67034;43.226;27.932;2023-03-14T06:23:50;5.77;71.68
77839;SHT31;67034;43.226;27.932;2023-03-14T06:26:17;6.00;70.67
77839;SHT31;67034;43.226;27.932;2023-03-14T06:28:43;6.16;69.79
77839;SHT31;67034;43.226;27.932;2023-03-14T06:31:09;6.27;69.93
77839;SHT31;67034;43.226;27.932;2023-03-14T06:33:34;6.37;69.04
77839;SHT31;67034;43.226;27.932;2023-03-14T06:36:00;6.49;68.89
77839;SHT31;67034;43.226;27.932;2023-03-14T06:38:26;6.61;69.04
77839;SHT31;67034;43.226;27.932;2023-03-14T06:40:51;6.71;68.16
77839;SHT31;67034;43.226;27.932;2023-03-14T06:43:18;6.79;68.14
77839;SHT31;67034;43.226;27.932;2023-03-14T06:45:44;6.89;67.19
77839;SHT31;67034;43.226;27.932;2023-03-14T06:48:09;6.87;67.33
77839;SHT31;67034;43.226;27.932;2023-03-14T06:50:35;6.96;67.16
77839;SHT31;67034;43.226;27.932;2023-03-14T06:53:01;7.06;67.26
77839;SHT31;67034;43.226;27.932;2023-03-14T06:55:27;7.17;66.82
77839;SHT31;67034;43.226;27.932;2023-03-14T06:57:52;7.14;66.56
77839;SHT31;67034;43.226;27.932;2023-03-14T07:00:20;7.16;67.34
77839;SHT31;67034;43.226;27.932;2023-03-14T07:02:45;7.23;66.72
77839;SHT31;67034;43.226;27.932;2023-03-14T07:05:11;7.31;66.42
77839;SHT31;67034;43.226;27.932;2023-03-14T07:07:37;7.24;66.00
77839;SHT31;67034;43.226;27.932;2023-03-14T07:10:02;7.18;66.33
77839;SHT31;67034;43.226;27.932;2023-03-14T07:12:28;7.38;66.61
77839;SHT31;67034;43.226;27.932;2023-03-14T07:14:56;7.56;66.32
77839;SHT31;67034;43.226;27.932;2023-03-14T07:17:23;7.66;65.08
77839;SHT31;67034;43.226;27.932;2023-03-14T07:19:49;7.62;66.01
77839;SHT31;67034;43.226;27.932;2023-03-14T07:22:14;7.83;64.74
77839;SHT31;67034;43.226;27.932;2023-03-14T07:24:40;7.89;63.93
77839;SHT31;67034;43.226;27.932;2023-03-14T07:27:05;7.83;64.51
77839;SHT31;67034;43.226;27.932;2023-03-14T07:29:31;7.66;65.29
77839;SHT31;67034;43.226;27.932;2023-03-14T07:31:56;7.51;65.76
77839;SHT31;67034;43.226;27.932;2023-03-14T07:34:23;7.50;65.42
77839;SHT31;67034;43.226;27.932;2023-03-14T07:36:49;7.51;65.29
77839;SHT31;67034;43.226;27.932;2023-03-14T07:39:14;7.74;65.42
77839;SHT31;67034;43.226;27.932;2023-03-14T07:41:40;7.96;64.01
77839;SHT31;67034;43.226;27.932;2023-03-14T07:44:06;8.06;64.05
77839;SHT31;67034;43.226;27.932;2023-03-14T07:46:31;8.02;64.15
77839;SHT31;67034;43.226;27.932;2023-03-14T07:48:57;8.16;64.37
77839;SHT31;67034;43.226;27.932;2023-03-14T07:51:24;7.99;63.74
77839;SHT31;67034;43.226;27.932;2023-03-14T07:53:50;7.87;64.41
77839;SHT31;67034;43.226;27.932;2023-03-14T07:56:16;7.96;64.62
77839;SHT31;67034;43.226;27.932;2023-03-14T07:58:41;7.79;64.46
77839;SHT31;67034;43.226;27.932;2023-03-14T08:01:07;7.81;65.42
77839;SHT31;67034;43.226;27.932;2023-03-14T08:03:33;7.76;64.10
77839;SHT31;67034;43.226;27.932;2023-03-14T08:05:58;7.72;64.86
77839;SHT31;67034;43.226;27.932;2023-03-14T08:08:25;7.99;64.78
77839;SHT31;67034;43.226;27.932;2023-03-14T08:10:51;8.09;64.14
77839;SHT31;67034;43.226;27.932;2023-03-14T08:13:17;8.30;62.97
77839;SHT31;67034;43.226;27.932;2023-03-14T08:15:42;7.97;63.95
77839;SHT31;67034;43.226;27.932;2023-03-14T08:18:08;7.97;63.56
77839;SHT31;67034;43.226;27.932;2023-03-14T08:20:35;7.89;64.55
77839;SHT31;67034;43.226;27.932;2023-03-14T08:23:01;8.22;63.90
77839;SHT31;67034;43.226;27.932;2023-03-14T08:25:30;8.67;62.48
77839;SHT31;67034;43.226;27.932;2023-03-14T08:27:56;8.63;63.10
77839;SHT31;67034;43.226;27.932;2023-03-14T08:30:22;8.33;62.29
77839;SHT31;67034;43.226;27.932;2023-03-14T08:32:48;8.00;63.67
77839;SHT31;67034;43.226;27.932;2023-03-14T08:35:14;8.24;63.78
77839;SHT31;67034;43.226;27.932;2023-03-14T08:37:40;8.61;62.34
77839;SHT31;67034;43.226;27.932;2023-03-14T08:40:07;8.67;61.84
77839;SHT31;67034;43.226;27.932;2023-03-14T08:42:35;8.51;62.89
77839;SHT31;67034;43.226;27.932;2023-03-14T08:45:01;8.34;63.05
77839;SHT31;67034;43.226;27.932;2023-03-14T08:47:27;8.48;62.46
77839;SHT31;67034;43.226;27.932;2023-03-14T08:49:55;8.44;63.35
77839;SHT31;67034;43.226;27.932;2023-03-14T08:52:21;8.67;63.60
77839;SHT31;67034;43.226;27.932;2023-03-14T08:54:47;8.84;62.04
77839;SHT31;67034;43.226;27.932;2023-03-14T08:57:12;8.67;62.95
77839;SHT31;67034;43.226;27.932;2023-03-14T08:59:39;8.91;61.36
77839;SHT31;67034;43.226;27.932;2023-03-14T09:02:05;8.58;62.87
77839;SHT31;67034;43.226;27.932;2023-03-14T09:04:31;8.92;62.78
77839;SHT31;67034;43.226;27.932;2023-03-14T09:06:58;8.84;61.85
77839;SHT31;67034;43.226;27.932;2023-03-14T09:09:23;9.03;62.36
77839;SHT31;67034;43.226;27.932;2023-03-14T09:11:49;9.42;60.97
77839;SHT31;67034;43.226;27.932;2023-03-14T09:14:15;9.71;59.45
77839;SHT31;67034;43.226;27.932;2023-03-14T09:16:42;10.03;59.03
77839;SHT31;67034;43.226;27.932;2023-03-14T09:19:09;10.20;58.04
77839;SHT31;67034;43.226;27.932;2023-03-14T09:21:35;10.19;59.35
77839;SHT31;67034;43.226;27.932;2023-03-14T09:24:00;10.05;59.13
77839;SHT31;67034;43.226;27.932;2023-03-14T09:26:26;10.18;58.57
77839;SHT31;67034;43.226;27.932;2023-03-14T09:28:52;9.99;59.05
77839;SHT31;67034;43.226;27.932;2023-03-14T09:31:18;9.95;59.26
77839;SHT31;67034;43.226;27.932;2023-03-14T09:33:45;9.82;59.64
77839;SHT31;67034;43.226;27.932;2023-03-14T09:36:11;10.06;58.54
77839;SHT31;67034;43.226;27.932;2023-03-14T09:38:37;10.32;58.72
77839;SHT31;67034;43.226;27.932;2023-03-14T09:41:13;10.18;59.12
77839;SHT31;67034;43.226;27.932;2023-03-14T09:43:40;10.13;59.61
77839;SHT31;67034;43.226;27.932;2023-03-14T09:46:09;10.20;58.85
77839;SHT31;67034;43.226;27.932;2023-03-14T09:48:36;10.20;60.19
77839;SHT31;67034;43.226;27.932;2023-03-14T09:51:06;9.80;60.45
77839;SHT31;67034;43.226;27.932;2023-03-14T09:53:40;9.85;60.33
77839;SHT31;67034;43.226;27.932;2023-03-14T09:56:11;9.74;61.32
77839;SHT31;67034;43.226;27.932;2023-03-14T09:58:40;9.88;59.31
77839;SHT31;67034;43.226;27.932;2023-03-14T10:01:11;9.90;58.42
77839;SHT31;67034;43.226;27.932;2023-03-14T10:03:37;10.13;59.10
77839;SHT31;67034;43.226;27.932;2023-03-14T10:06:11;10.06;59.05
77839;SHT31;67034;43.226;27.932;2023-03-14T10:08:39;9.61;56.91
77839;SHT31;67034;43.226;27.932;2023-03-14T10:11:05;9.88;59.26
77839;SHT31;67034;43.226;27.932;2023-03-14T10:13:32;9.88;59.56
77839;SHT31;67034;43.226;27.932;2023-03-14T10:16:00;9.91;59.34
77839;SHT31;67034;43.226;27.932;2023-03-14T10:18:30;10.15;58.51
77839;SHT31;67034;43.226;27.932;2023-03-14T10:21:06;10.69;58.76
77839;SHT31;67034;43.226;27.932;2023-03-14T10:23:34;10.93;55.91
77839;SHT31;67034;43.226;27.932;2023-03-14T10:26:07;10.43;57.80
77839;SHT31;67034;43.226;27.932;2023-03-14T10:28:37;10.29;57.86
77839;SHT31;67034;43.226;27.932;2023-03-14T10:31:03;10.36;57.88
77839;SHT31;67034;43.226;27.932;2023-03-14T10:33:31;10.61;59.19
77839;SHT31;67034;43.226;27.932;2023-03-14T10:35:59;10.87;56.86
77839;SHT31;67034;43.226;27.932;2023-03-14T10:38:30;10.85;57.16
77839;SHT31;67034;43.226;27.932;2023-03-14T10:40:56;11.19;56.47
77839;SHT31;67034;43.226;27.932;2023-03-14T10:43:26;11.19;53.31
77839;SHT31;67034;43.226;27.932;2023-03-14T10:45:54;11.42;52.70
77839;SHT31;67034;43.226;27.932;2023-03-14T10:48:28;11.25;53.53
77839;SHT31;67034;43.226;27.932;2023-03-14T10:50:57;11.34;52.36
77839;SHT31;67034;43.226;27.932;2023-03-14T10:53:23;11.27;50.75
77839;SHT31;67034;43.226;27.932;2023-03-14T10:55:52;10.93;49.73
77839;SHT31;67034;43.226;27.932;2023-03-14T10:58:25;10.80;53.59
77839;SHT31;67034;43.226;27.932;2023-03-14T11:01:02;11.31;54.53
77839;SHT31;67034;43.226;27.932;2023-03-14T11:03:30;12.01;50.00
77839;SHT31;67034;43.226;27.932;2023-03-14T11:05:57;12.54;49.02
77839;SHT31;67034;43.226;27.932;2023-03-14T11:08:27;12.64;49.46
77839;SHT31;67034;43.226;27.932;2023-03-14T11:11:06;12.79;49.79
77839;SHT31;67034;43.226;27.932;2023-03-14T11:13:38;12.97;44.27
77839;SHT31;67034;43.226;27.932;2023-03-14T11:16:09;12.44;49.91
77839;SHT31;67034;43.226;27.932;2023-03-14T11:18:58;12.42;49.03
77839;SHT31;67034;43.226;27.932;2023-03-14T11:21:29;12.58;48.49
77839;SHT31;67034;43.226;27.932;2023-03-14T11:24:13;12.91;46.40
77839;SHT31;67034;43.226;27.932;2023-03-14T11:26:45;13.02;46.03
77839;SHT31;67034;43.226;27.932;2023-03-14T11:29:20;12.78;45.72
77839;SHT31;67034;43.226;27.932;2023-03-14T11:31:47;12.86;45.99
77839;SHT31;67034;43.226;27.932;2023-03-14T11:34:16;12.64;46.28
77839;SHT31;67034;43.226;27.932;2023-03-14T11:36:46;12.66;46.80
77839;SHT31;67034;43.226;27.932;2023-03-14T11:39:17;12.81;46.26
77839;SHT31;67034;43.226;27.932;2023-03-14T11:41:46;13.04;44.61
77839;SHT31;67034;43.226;27.932;2023-03-14T11:44:18;12.78;45.64
77839;SHT31;67034;43.226;27.932;2023-03-14T11:46:50;12.75;47.01
77839;SHT31;67034;43.226;27.932;2023-03-14T11:49:27;13.13;46.68
77839;SHT31;67034;43.226;27.932;2023-03-14T11:51:58;13.39;43.24
77839;SHT31;67034;43.226;27.932;2023-03-14T11:54:31;13.48;44.92
77839;SHT31;67034;43.226;27.932;2023-03-14T11:57:02;13.77;44.36
77839;SHT31;67034;43.226;27.932;2023-03-14T11:59:32;13.62;46.43
77839;SHT31;67034;43.226;27.932;2023-03-14T12:02:01;13.74;46.40
77839;SHT31;67034;43.226;27.932;2023-03-14T12:04:41;13.22;44.31
77839;SHT31;67034;43.226;27.932;2023-03-14T12:07:14;12.88;46.88
77839;SHT31;67034;43.226;27.932;2023-03-14T12:09:43;12.92;45.13
77839;SHT31;67034;43.226;27.932;2023-03-14T12:12:13;12.85;47.53
77839;SHT31;67034;43.226;27.932;2023-03-14T12:14:45;13.07;47.16
77839;SHT31;67034;43.226;27.932;2023-03-14T12:17:19;12.95;45.21
77839;SHT31;67034;43.226;27.932;2023-03-14T12:19:45;13.07;44.11
77839;SHT31;67034;43.226;27.932;2023-03-14T12:22:29;12.89;45.65
77839;SHT31;67034;43.226;27.932;2023-03-14T12:25:00;12.71;45.57
77839;SHT31;67034;43.226;27.932;2023-03-14T12:28:03;12.78;48.25
77839;SHT31;67034;43.226;27.932;2023-03-14T12:30:31;12.86;45.55
77839;SHT31;67034;43.226;27.932;2023-03-14T12:33:30;12.96;47.99
77839;SHT31;67034;43.226;27.932;2023-03-14T12:36:31;13.16;46.54
77839;SHT31;67034;43.226;27.932;2023-03-14T12:39:21;12.73;48.41
77839;SHT31;67034;43.226;27.932;2023-03-14T12:41:52;12.99;47.50
77839;SHT31;67034;43.226;27.932;2023-03-14T12:44:42;13.16;46.66
77839;SHT31;67034;43.226;27.932;2023-03-14T12:50:16;13.40;49.57
77839;SHT31;67034;43.226;27.932;2023-03-14T12:52:52;13.81;45.77
77839;SHT31;67034;43.226;27.932;2023-03-14T12:55:24;13.40;47.90
77839;SHT31;67034;43.226;27.932;2023-03-14T12:57:56;12.76;48.04
77839;SHT31;67034;43.226;27.932;2023-03-14T13:00:31;12.85;50.23
77839;SHT31;67034;43.226;27.932;2023-03-14T13:03:01;13.07;48.36
77839;SHT31;67034;43.226;27.932;2023-03-14T13:05:29;13.27;48.17
77839;SHT31;67034;43.226;27.932;2023-03-14T13:08:08;13.40;50.53
77839;SHT31;67034;43.226;27.932;2023-03-14T13:10:45;13.88;49.35
77839;SHT31;67034;43.226;27.932;2023-03-14T13:13:19;13.03;50.98
77839;SHT31;67034;43.226;27.932;2023-03-14T13:15:48;12.93;52.34
77839;SHT31;67034;43.226;27.932;2023-03-14T13:18:18;13.00;52.63
77839;SHT31;67034;43.226;27.932;2023-03-14T13:20:48;13.31;51.35
77839;SHT31;67034;43.226;27.932;2023-03-14T13:23:20;12.62;51.66
77839;SHT31;67034;43.226;27.932;2023-03-14T13:25:46;13.06;52.10
77839;SHT31;67034;43.226;27.932;2023-03-14T13:28:14;13.33;50.97
77839;SHT31;67034;43.226;27.932;2023-03-14T13:30:42;13.36;51.08
77839;SHT31;67034;43.226;27.932;2023-03-14T13:33:14;13.75;49.23
77839;SHT31;67034;43.226;27.932;2023-03-14T13:35:42;13.09;49.00
77839;SHT31;67034;43.226;27.932;2023-03-14T13:38:16;12.86;48.88
77839;SHT31;67034;43.226;27.932;2023-03-14T13:40:43;12.31;52.20
77839;SHT31;67034;43.226;27.932;2023-03-14T13:43:14;12.62;52.87
77839;SHT31;67034;43.226;27.932;2023-03-14T13:45:52;12.30;50.73
77839;SHT31;67034;43.226;27.932;2023-03-14T13:48:21;12.10;52.99
77839;SHT31;67034;43.226;27.932;2023-03-14T13:50:52;12.28;53.78
77839;SHT31;67034;43.226;27.932;2023-03-14T13:53:18;12.41;53.16
77839;SHT31;67034;43.226;27.932;2023-03-14T13:55:44;12.27;54.73
77839;SHT31;67034;43.226;27.932;2023-03-14T13:58:19;12.40;53.19
77839;SHT31;67034;43.226;27.932;2023-03-14T14:00:54;12.13;54.83
77839;SHT31;67034;43.226;27.932;2023-03-14T14:03:22;12.08;55.06
77839;SHT31;67034;43.226;27.932;2023-03-14T14:05:48;12.30;54.10
77839;SHT31;67034;43.226;27.932;2023-03-14T14:08:14;12.27;53.81
77839;SHT31;67034;43.226;27.932;2023-03-14T14:10:40;12.28;54.29
77839;SHT31;67034;43.226;27.932;2023-03-14T14:13:17;12.24;54.36
77839;SHT31;67034;43.226;27.932;2023-03-14T14:15:46;12.21;55.04
77839;SHT31;67034;43.226;27.932;2023-03-14T14:18:16;12.65;54.07
77839;SHT31;67034;43.226;27.932;2023-03-14T14:20:46;13.04;52.78
77839;SHT31;67034;43.226;27.932;2023-03-14T14:23:14;12.55;54.14
77839;SHT31;67034;43.226;27.932;2023-03-14T14:25:42;12.18;55.57
77839;SHT31;67034;43.226;27.932;2023-03-14T14:28:17;12.12;55.88
77839;SHT31;67034;43.226;27.932;2023-03-14T14:30:43;12.10;54.96
77839;SHT31;67034;43.226;27.932;2023-03-14T14:33:19;11.52;56.67
77839;SHT31;67034;43.226;27.932;2023-03-14T14:35:57;11.43;57.52
77839;SHT31;67034;43.226;27.932;2023-03-14T14:38:24;11.52;56.53
77839;SHT31;67034;43.226;27.932;2023-03-14T14:40:52;11.70;56.51
77839;SHT31;67034;43.226;27.932;2023-03-14T14:43:21;11.69;56.53
77839;SHT31;67034;43.226;27.932;2023-03-14T14:45:49;10.88;59.13
77839;SHT31;67034;43.226;27.932;2023-03-14T14:48:19;10.74;59.75
77839;SHT31;67034;43.226;27.932;2023-03-14T14:50:58;10.57;61.04
77839;SHT31;67034;43.226;27.932;2023-03-14T14:53:29;10.56;60.96
77839;SHT31;67034;43.226;27.932;2023-03-14T14:55:57;10.71;60.91
77839;SHT31;67034;43.226;27.932;2023-03-14T14:58:25;10.79;60.54
77839;SHT31;67034;43.226;27.932;2023-03-14T15:00:54;10.56;61.05
77839;SHT31;67034;43.226;27.932;2023-03-14T15:03:20;10.88;59.97
77839;SHT31;67034;43.226;27.932;2023-03-14T15:05:46;11.15;58.85
77839;SHT31;67034;43.226;27.932;2023-03-14T15:08:13;11.27;58.54
77839;SHT31;67034;43.226;27.932;2023-03-14T15:10:39;10.88;59.51
77839;SHT31;67034;43.226;27.932;2023-03-14T15:13:05;11.03;58.79
77839;SHT31;67034;43.226;27.932;2023-03-14T15:15:31;11.04;58.69
77839;SHT31;67034;43.226;27.932;2023-03-14T15:17:57;11.35;58.20
77839;SHT31;67034;43.226;27.932;2023-03-14T15:20:22;11.32;58.32
77839;SHT31;67034;43.226;27.932;2023-03-14T15:22:52;11.49;57.76
77839;SHT31;67034;43.226;27.932;2023-03-14T15:25:19;11.79;56.88
77839;SHT31;67034;43.226;27.932;2023-03-14T15:27:44;11.87;56.54
77839;SHT31;67034;43.226;27.932;2023-03-14T15:30:12;11.70;57.23
77839;SHT31;67034;43.226;27.932;2023-03-14T15:32:38;12.21;56.06